Green Lofoten — P3MG8 — position and weather

sailwx.info

Track history (hours):
 
Tides and Currents Weather Stations Pressure Air Temp Water Temp Dewpoint Dewpoint Depression Visibility Wind Speed Wind Dir Waves Ship Positions

Green Lofoten

Last reported at 2016-Feb-07 21:33 UTC. Time now 2016-Feb-07 21:55 UTC.
Position N 54°44' W 005°28'.

Length 98 m; draft 4.6 m.

Type: Cargo ship. MMSI: 212857000.

Date/timePositionNaut miles runAvg speedWind from/ knotsBaromVisibWave heightAir tempDewpointWater temp
2016-Feb-07 21:33N 54°44' W 005°28'9 9.4
2016-Feb-07 20:33N 54°51' W 005°38'10 9.5
2016-Feb-07 19:29N 54°59' W 005°50'12 9.6
2016-Feb-07 18:15N 55°10' W 005°58'15 8.6
2016-Feb-07 16:33N 54°56' W 005°49'9 9.5
2016-Feb-07 15:33N 54°50' W 005°36'1010.2
2016-Feb-07 14:33N 54°42' W 005°25'1110.5
2016-Feb-07 13:33N 54°32' W 005°20'10 9.9
2016-Feb-07 12:34N 54°23' W 005°17'10 9.7
2016-Feb-07 11:33N 54°15' W 005°26'10 9.8
2016-Feb-07 10:33N 54°07' W 005°37'10 9.8
2016-Feb-07 09:32N 53°59' W 005°47'10 9.7
2016-Feb-07 08:33N 53°51' W 005°56'1310.3
2016-Feb-07 07:14N 53°38' W 005°54'114 8.2
2016-Feb-06 17:17N 51°48' W 006°47'7 9.9
2016-Feb-06 16:33N 51°43' W 006°55'59614.1
2016-Feb-04 22:11N 41°59' W 009°48'1014.8
2016-Feb-04 21:31N 41°49' W 009°48'1312.8
2016-Feb-04 20:30N 41°36' W 009°49'1314.1
2016-Feb-04 19:33N 41°23' W 009°49'1514.0
2016-Feb-04 18:30N 41°08' W 009°49'1514.9
2016-Feb-04 17:28N 40°52' W 009°49'1414.1
2016-Feb-04 16:28N 40°38' W 009°51'1313.3
2016-Feb-04 15:31N 40°26' W 009°50'1413.9
2016-Feb-04 14:31N 40°12' W 009°50'1413.7
2016-Feb-04 13:31N 39°58' W 009°50'2612.5
2016-Feb-04 11:28N 39°32' W 009°51'1010.8
2016-Feb-04 10:32N 39°23' W 009°51'1211.8
2016-Feb-04 09:33N 39°11' W 009°51'1111.5
2016-Feb-04 08:33N 38°59' W 009°51'1211.5
2016-Feb-04 07:29N 38°47' W 009°51'1011.1
2016-Feb-04 06:33N 38°37' W 009°50'1111.1
2016-Feb-04 05:33N 38°26' W 009°47'1110.7
2016-Feb-04 04:31N 38°15' W 009°44'1111.2
2016-Feb-04 03:33N 38°05' W 009°41'1211.6
2016-Feb-04 02:33N 37°53' W 009°37'1211.5
2016-Feb-04 01:33N 37°42' W 009°34'1111.4
2016-Feb-04 00:33N 37°31' W 009°30'1211.8
2016-Feb-03 23:33N 37°20' W 009°27'1313.0
2016-Feb-03 22:30N 37°06' W 009°23'1212.6
2016-Feb-03 21:33N 36°55' W 009°20'1313.2
2016-Feb-03 20:33N 36°45' W 009°09'1313.0
2016-Feb-03 19:34N 36°40' W 008°54'1615.0
2016-Feb-03 18:31N 36°36' W 008°35'1514.9
2016-Feb-03 17:31N 36°31' W 008°17'4814.4
2016-Feb-03 14:12N 36°16' W 007°21'914.5
2016-Feb-03 13:33N 36°13' W 007°10'7614.1
2016-Feb-03 08:11N 35°58' W 005°38'813.4
2016-Feb-03 07:34N 35°60' W 005°28'1212.3
2016-Feb-03 06:34N 36°01' W 005°13'21614.3
2016-Feb-02 15:28N 35°52' W 000°46'1111.8
2016-Feb-02 14:33N 35°44' W 000°38'1 1.3
2016-Feb-02 13:28N 35°43' W 000°38'0 0.0
2016-Feb-02 12:28N 35°43' W 000°38'0 0.0
2016-Feb-02 05:11N 35°43' W 000°38'0 0.0
2016-Feb-02 00:28N 35°43' W 000°38'0 0.0
2016-Feb-01 23:22N 35°43' W 000°38'0 0.0
2016-Feb-01 21:28N 35°43' W 000°38'0 0.0
2016-Feb-01 20:28N 35°43' W 000°38'0 0.0
2016-Feb-01 19:11N 35°43' W 000°38'0 0.0
2016-Feb-01 07:28N 35°43' W 000°38'0 0.0
2016-Feb-01 06:31N 35°43' W 000°38'0 0.0
2016-Feb-01 05:31N 35°43' W 000°38'0 0.0
2016-Feb-01 03:16N 35°43' W 000°38'  
Track history (hours):
 
Tides and Currents Weather Stations Pressure Air Temp Water Temp Dewpoint Dewpoint Depression Visibility Wind Speed Wind Dir Waves Ship Positions

Green Lofoten

Last reported at 2016-Feb-07 21:33 UTC. Time now 2016-Feb-07 21:55 UTC.
Position N 54°44' W 005°28'.

Length 98 m; draft 4.6 m.

Type: Cargo ship. MMSI: 212857000.

Date/timePositionNaut miles runAvg speedWind from/ knotsBaromVisibWave heightAir tempDewpointWater temp
2016-Feb-07 21:33N 54°44' W 005°28'9 9.4
2016-Feb-07 20:33N 54°51' W 005°38'10 9.5
2016-Feb-07 19:29N 54°59' W 005°50'12 9.6
2016-Feb-07 18:15N 55°10' W 005°58'15 8.6
2016-Feb-07 16:33N 54°56' W 005°49'9 9.5
2016-Feb-07 15:33N 54°50' W 005°36'1010.2
2016-Feb-07 14:33N 54°42' W 005°25'1110.5
2016-Feb-07 13:33N 54°32' W 005°20'10 9.9
2016-Feb-07 12:34N 54°23' W 005°17'10 9.7
2016-Feb-07 11:33N 54°15' W 005°26'10 9.8
2016-Feb-07 10:33N 54°07' W 005°37'10 9.8
2016-Feb-07 09:32N 53°59' W 005°47'10 9.7
2016-Feb-07 08:33N 53°51' W 005°56'1310.3
2016-Feb-07 07:14N 53°38' W 005°54'114 8.2
2016-Feb-06 17:17N 51°48' W 006°47'7 9.9
2016-Feb-06 16:33N 51°43' W 006°55'59614.1
2016-Feb-04 22:11N 41°59' W 009°48'1014.8
2016-Feb-04 21:31N 41°49' W 009°48'1312.8
2016-Feb-04 20:30N 41°36' W 009°49'1314.1
2016-Feb-04 19:33N 41°23' W 009°49'1514.0
2016-Feb-04 18:30N 41°08' W 009°49'1514.9
2016-Feb-04 17:28N 40°52' W 009°49'1414.1
2016-Feb-04 16:28N 40°38' W 009°51'1313.3
2016-Feb-04 15:31N 40°26' W 009°50'1413.9
2016-Feb-04 14:31N 40°12' W 009°50'1413.7
2016-Feb-04 13:31N 39°58' W 009°50'2612.5
2016-Feb-04 11:28N 39°32' W 009°51'1010.8
2016-Feb-04 10:32N 39°23' W 009°51'1211.8
2016-Feb-04 09:33N 39°11' W 009°51'1111.5
2016-Feb-04 08:33N 38°59' W 009°51'1211.5
2016-Feb-04 07:29N 38°47' W 009°51'1011.1
2016-Feb-04 06:33N 38°37' W 009°50'1111.1
2016-Feb-04 05:33N 38°26' W 009°47'1110.7
2016-Feb-04 04:31N 38°15' W 009°44'1111.2
2016-Feb-04 03:33N 38°05' W 009°41'1211.6
2016-Feb-04 02:33N 37°53' W 009°37'1211.5
2016-Feb-04 01:33N 37°42' W 009°34'1111.4
2016-Feb-04 00:33N 37°31' W 009°30'1211.8
2016-Feb-03 23:33N 37°20' W 009°27'1313.0
2016-Feb-03 22:30N 37°06' W 009°23'1212.6
2016-Feb-03 21:33N 36°55' W 009°20'1313.2
2016-Feb-03 20:33N 36°45' W 009°09'1313.0
2016-Feb-03 19:34N 36°40' W 008°54'1615.0
2016-Feb-03 18:31N 36°36' W 008°35'1514.9
2016-Feb-03 17:31N 36°31' W 008°17'4814.4
2016-Feb-03 14:12N 36°16' W 007°21'914.5
2016-Feb-03 13:33N 36°13' W 007°10'7614.1
2016-Feb-03 08:11N 35°58' W 005°38'813.4
2016-Feb-03 07:34N 35°60' W 005°28'1212.3
2016-Feb-03 06:34N 36°01' W 005°13'21614.3
2016-Feb-02 15:28N 35°52' W 000°46'1111.8
2016-Feb-02 14:33N 35°44' W 000°38'1 1.3
2016-Feb-02 13:28N 35°43' W 000°38'0 0.0
2016-Feb-02 12:28N 35°43' W 000°38'0 0.0
2016-Feb-02 05:11N 35°43' W 000°38'0 0.0
2016-Feb-02 00:28N 35°43' W 000°38'0 0.0
2016-Feb-01 23:22N 35°43' W 000°38'0 0.0
2016-Feb-01 21:28N 35°43' W 000°38'0 0.0
2016-Feb-01 20:28N 35°43' W 000°38'0 0.0
2016-Feb-01 19:11N 35°43' W 000°38'0 0.0
2016-Feb-01 07:28N 35°43' W 000°38'0 0.0
2016-Feb-01 06:31N 35°43' W 000°38'0 0.0
2016-Feb-01 05:31N 35°43' W 000°38'0 0.0
2016-Feb-01 03:16N 35°43' W 000°38'  

Dump ship's entire track history